Time;durP1;ratioP1;P1;durP2;ratioP2;P2;SDS_P1;SDS_P2;PMS_P1;PMS_P2;Temp;Humidity;BMP_temperature;BMP_pressure;BME280_temperature;BME280_humidity;BME280_pressure;Samples;Min_cycle;Max_cycle;Signal;HPM_P1;HPM_P2
2022/01/07 00:01:35;;;;;;;0.68;0.68;;;;;;;;;;4979410;28;20046;-87
2022/01/07 00:04:01;;;;;;;0.52;0.52;;;;;;;;;;4981410;28;20798;-87
2022/01/07 00:06:27;;;;;;;11.60;1.80;;;;;;;;;;4974836;28;20463;-87
2022/01/07 00:08:54;;;;;;;14.88;1.85;;;;;;;;;;4978189;28;20495;-88
2022/01/07 00:11:20;;;;;;;0.80;0.80;;;;;;;;;;4978969;28;20042;-87
2022/01/07 00:13:46;;;;;;;0.20;0.20;;;;;;;;;;4978630;28;20034;-87
2022/01/07 00:16:12;;;;;;;1.80;0.87;;;;;;;;;;4976593;28;20061;-88
2022/01/07 00:18:41;;;;;;;0.52;0.52;;;;;;;;;;4978886;28;21891;-87
2022/01/07 00:21:07;;;;;;;0.77;0.35;;;;;;;;;;4978609;28;20053;-88
2022/01/07 00:23:34;;;;;;;0.43;0.43;;;;;;;;;;4981038;28;20037;-87
2022/01/07 00:26:00;;;;;;;1.27;1.17;;;;;;;;;;4979990;28;20034;-88
2022/01/07 00:28:26;;;;;;;0.10;0.10;;;;;;;;;;4974108;28;20089;-87
2022/01/07 00:30:52;;;;;;;0.10;0.10;;;;;;;;;;4980491;28;20034;-88
2022/01/07 00:33:18;;;;;;;0.10;0.10;;;;;;;;;;4975653;28;20026;-88
2022/01/07 00:35:45;;;;;;;0.63;0.63;;;;;;;;;;4980019;28;20381;-87
2022/01/07 00:38:11;;;;;;;3.55;0.40;;;;;;;;;;4971796;28;20096;-88
2022/01/07 00:40:37;;;;;;;1.03;1.03;;;;;;;;;;4983008;28;20129;-86
2022/01/07 00:43:03;;;;;;;0.30;0.30;;;;;;;;;;4978842;28;20290;-87
2022/01/07 00:45:29;;;;;;;8.37;1.93;;;;;;;;;;4975113;28;20034;-87
2022/01/07 00:47:56;;;;;;;2.33;1.83;;;;;;;;;;4976572;28;20303;-87
2022/01/07 00:50:23;;;;;;;7.90;2.13;;;;;;;;;;4971306;28;20073;-87
2022/01/07 00:52:49;;;;;;;0.57;0.57;;;;;;;;;;4972119;28;20125;-86
2022/01/07 00:55:16;;;;;;;0.40;0.40;;;;;;;;;;4972547;28;20026;-87
2022/01/07 00:57:42;;;;;;;3.45;1.65;;;;;;;;;;4973506;28;20872;-86
2022/01/07 01:00:11;;;;;;;0.50;0.50;;;;;;;;;;4974589;28;20039;-86
2022/01/07 01:02:37;;;;;;;0.20;0.20;;;;;;;;;;4974366;28;20126;-87
2022/01/07 01:05:04;;;;;;;1.33;1.33;;;;;;;;;;4976076;28;20036;-86
2022/01/07 01:07:30;;;;;;;1.80;0.75;;;;;;;;;;4969407;28;20034;-86
2022/01/07 01:09:56;;;;;;;0.40;0.40;;;;;;;;;;4976446;28;20541;-87
2022/01/07 01:12:22;;;;;;;0.10;0.10;;;;;;;;;;4972904;28;20030;-87
2022/01/07 01:14:48;;;;;;;0.10;0.10;;;;;;;;;;4972105;28;20034;-85
2022/01/07 01:17:14;;;;;;;0.40;0.40;;;;;;;;;;4975789;28;20282;-86
2022/01/07 01:19:40;;;;;;;0.47;0.47;;;;;;;;;;4979386;28;20388;-88
2022/01/07 01:22:06;;;;;;;0.23;0.23;;;;;;;;;;4979907;28;20034;-87
2022/01/07 01:24:33;;;;;;;0.53;0.53;;;;;;;;;;4979131;28;20027;-86
2022/01/07 01:26:59;;;;;;;0.50;0.50;;;;;;;;;;4978379;28;20881;-87
2022/01/07 01:29:25;;;;;;;0.10;0.10;;;;;;;;;;4970058;28;20321;-86
2022/01/07 01:31:51;;;;;;;0.30;0.30;;;;;;;;;;4974348;28;20058;-87
2022/01/07 01:34:17;;;;;;;0.10;0.10;;;;;;;;;;4973903;28;20081;-86
2022/01/07 01:36:43;;;;;;;1.77;0.70;;;;;;;;;;4981221;28;20022;-86
2022/01/07 01:39:12;;;;;;;0.63;0.63;;;;;;;;;;4971149;28;20022;-87
2022/01/07 01:41:38;;;;;;;0.45;0.45;;;;;;;;;;4974185;28;20054;-86
2022/01/07 01:44:04;;;;;;;0.30;0.30;;;;;;;;;;4973175;28;20050;-86
2022/01/07 01:46:30;;;;;;;0.10;0.10;;;;;;;;;;4972585;28;20117;-86
2022/01/07 01:48:56;;;;;;;1.02;0.95;;;;;;;;;;4974277;28;20121;-86
2022/01/07 01:51:22;;;;;;;1.20;0.75;;;;;;;;;;4975602;28;20027;-85
2022/01/07 01:53:49;;;;;;;0.25;0.25;;;;;;;;;;4979363;28;20126;-87
2022/01/07 01:56:15;;;;;;;0.30;0.30;;;;;;;;;;4973631;28;20068;-86
2022/01/07 01:58:41;;;;;;;0.30;0.30;;;;;;;;;;4973142;28;20038;-86
2022/01/07 02:01:07;;;;;;;1.43;1.37;;;;;;;;;;4973295;28;20043;-86
2022/01/07 02:03:33;;;;;;;0.28;0.28;;;;;;;;;;4974571;28;20073;-87
2022/01/07 02:05:59;;;;;;;0.30;0.30;;;;;;;;;;4973642;28;20033;-87
2022/01/07 02:08:25;;;;;;;0.17;0.17;;;;;;;;;;4972599;28;20097;-87
2022/01/07 02:10:51;;;;;;;0.20;0.20;;;;;;;;;;4975000;28;20056;-88
2022/01/07 02:13:18;;;;;;;0.32;0.32;;;;;;;;;;4978415;28;20220;-87
2022/01/07 02:15:44;;;;;;;0.35;0.35;;;;;;;;;;4975493;28;20065;-87
2022/01/07 02:18:10;;;;;;;0.30;0.30;;;;;;;;;;4973137;28;20035;-87
2022/01/07 02:20:36;;;;;;;0.20;0.20;;;;;;;;;;4970366;28;20093;-86
2022/01/07 02:23:02;;;;;;;0.43;0.43;;;;;;;;;;4970059;28;20100;-86
2022/01/07 02:25:29;;;;;;;0.50;0.50;;;;;;;;;;4972223;28;20041;-86
2022/01/07 02:27:55;;;;;;;0.20;0.20;;;;;;;;;;4972214;28;20317;-87
2022/01/07 02:30:24;;;;;;;0.70;0.70;;;;;;;;;;4970694;28;20787;-87
2022/01/07 02:32:50;;;;;;;0.50;0.50;;;;;;;;;;4973274;28;20038;-88
2022/01/07 02:35:17;;;;;;;0.85;0.85;;;;;;;;;;4970078;28;20034;-88
2022/01/07 02:37:43;;;;;;;0.10;0.10;;;;;;;;;;4973202;28;20042;-87
2022/01/07 02:40:10;;;;;;;1.03;0.73;;;;;;;;;;4973004;28;20026;-87
2022/01/07 02:42:36;;;;;;;0.10;0.10;;;;;;;;;;4969802;28;20359;-87
2022/01/07 02:45:05;;;;;;;0.10;0.10;;;;;;;;;;4972629;28;20130;-87
2022/01/07 02:47:39;;;;;;;0.10;0.10;;;;;;;;;;4968579;28;20784;-87
2022/01/07 02:50:05;;;;;;;0.35;0.35;;;;;;;;;;4967437;28;20759;-87
2022/01/07 02:52:31;;;;;;;1.70;1.17;;;;;;;;;;4969046;28;20019;-86
2022/01/07 02:54:58;;;;;;;0.60;0.60;;;;;;;;;;4970547;28;20048;-86
2022/01/07 02:57:24;;;;;;;0.68;0.60;;;;;;;;;;4970405;28;20033;-87
2022/01/07 02:59:50;;;;;;;0.28;0.28;;;;;;;;;;4972930;28;20113;-87
2022/01/07 03:02:16;;;;;;;0.20;0.20;;;;;;;;;;4971007;28;20510;-86
2022/01/07 03:04:42;;;;;;;0.53;0.53;;;;;;;;;;4968125;28;20096;-86
2022/01/07 03:07:08;;;;;;;0.10;0.10;;;;;;;;;;4967091;28;20478;-87
2022/01/07 03:09:34;;;;;;;1.40;0.70;;;;;;;;;;4969135;28;20045;-86
2022/01/07 03:12:00;;;;;;;1.30;1.23;;;;;;;;;;4986155;28;20027;-87
2022/01/07 03:14:27;;;;;;;0.22;0.22;;;;;;;;;;4971129;28;20030;-86
2022/01/07 03:16:53;;;;;;;0.95;0.90;;;;;;;;;;4982083;28;20411;-86
2022/01/07 03:19:19;;;;;;;1.17;1.07;;;;;;;;;;4982441;28;20117;-86
2022/01/07 03:21:45;;;;;;;0.10;0.10;;;;;;;;;;4979752;28;20437;-86
2022/01/07 03:24:12;;;;;;;1.77;1.65;;;;;;;;;;4968325;28;20507;-87
2022/01/07 03:26:38;;;;;;;2.58;1.02;;;;;;;;;;4972604;28;20125;-87
2022/01/07 03:29:05;;;;;;;0.20;0.20;;;;;;;;;;4972128;28;20485;-86
2022/01/07 03:31:31;;;;;;;0.15;0.15;;;;;;;;;;4973290;28;20038;-86
2022/01/07 03:33:57;;;;;;;0.50;0.50;;;;;;;;;;4967203;28;20538;-87
2022/01/07 03:36:23;;;;;;;0.40;0.40;;;;;;;;;;4971029;28;20035;-86
2022/01/07 03:38:49;;;;;;;0.30;0.30;;;;;;;;;;4974668;28;20034;-86
2022/01/07 03:41:15;;;;;;;0.10;0.10;;;;;;;;;;4976397;28;20046;-86
2022/01/07 03:43:41;;;;;;;0.88;0.52;;;;;;;;;;4982179;28;20051;-87
2022/01/07 03:46:07;;;;;;;0.10;0.10;;;;;;;;;;4979378;28;20081;-86
2022/01/07 03:48:33;;;;;;;0.45;0.45;;;;;;;;;;4992007;28;20041;-87
2022/01/07 03:50:59;;;;;;;0.10;0.10;;;;;;;;;;4970089;28;20030;-85
2022/01/07 03:53:25;;;;;;;0.38;0.38;;;;;;;;;;4965990;28;20031;-87
2022/01/07 03:55:52;;;;;;;0.10;0.10;;;;;;;;;;4971416;28;20049;-87
2022/01/07 03:58:19;;;;;;;0.68;0.68;;;;;;;;;;4976670;28;20272;-87
2022/01/07 04:00:45;;;;;;;0.10;0.10;;;;;;;;;;4970571;28;20084;-87
2022/01/07 04:03:12;;;;;;;0.67;0.47;;;;;;;;;;4991012;28;20038;-87
2022/01/07 04:05:39;;;;;;;0.85;0.35;;;;;;;;;;4966484;28;20061;-86
2022/01/07 04:08:05;;;;;;;0.38;0.38;;;;;;;;;;4973684;28;20608;-87
2022/01/07 04:10:31;;;;;;;0.15;0.15;;;;;;;;;;4969416;28;20557;-84
2022/01/07 04:12:57;;;;;;;0.20;0.20;;;;;;;;;;4972782;28;20031;-85
2022/01/07 04:15:24;;;;;;;0.10;0.10;;;;;;;;;;4968599;28;20068;-86
2022/01/07 04:17:51;;;;;;;0.30;0.30;;;;;;;;;;4970981;28;20027;-86
2022/01/07 04:20:18;;;;;;;0.10;0.10;;;;;;;;;;4972787;28;20065;-87
2022/01/07 04:22:44;;;;;;;0.10;0.10;;;;;;;;;;4968052;28;20101;-87
2022/01/07 04:25:17;;;;;;;0.30;0.30;;;;;;;;;;4973167;28;20549;-87
2022/01/07 04:27:47;;;;;;;0.47;0.47;;;;;;;;;;4974793;28;20038;-87
2022/01/07 04:30:14;;;;;;;0.30;0.30;;;;;;;;;;4972292;28;20514;-87
2022/01/07 04:32:41;;;;;;;0.65;0.65;;;;;;;;;;4972654;28;20467;-85
2022/01/07 04:35:07;;;;;;;0.17;0.17;;;;;;;;;;4975158;28;21071;-87
2022/01/07 04:37:33;;;;;;;1.05;0.98;;;;;;;;;;4989416;28;20038;-86
2022/01/07 04:39:59;;;;;;;0.40;0.40;;;;;;;;;;4973511;28;20101;-87
2022/01/07 04:42:25;;;;;;;0.30;0.30;;;;;;;;;;4972633;28;20104;-87
2022/01/07 04:44:51;;;;;;;0.40;0.40;;;;;;;;;;4974038;28;20480;-86
2022/01/07 04:47:17;;;;;;;0.22;0.22;;;;;;;;;;4976561;28;20089;-86
2022/01/07 04:49:43;;;;;;;1.55;1.40;;;;;;;;;;4976055;28;20039;-86
2022/01/07 04:52:09;;;;;;;0.30;0.30;;;;;;;;;;4974437;28;20435;-87
2022/01/07 04:54:35;;;;;;;0.20;0.20;;;;;;;;;;4973594;28;20287;-86
2022/01/07 04:57:02;;;;;;;2.75;2.55;;;;;;;;;;4974312;28;20499;-87
2022/01/07 04:59:28;;;;;;;0.40;0.40;;;;;;;;;;4973307;28;20041;-87
2022/01/07 05:01:54;;;;;;;0.27;0.27;;;;;;;;;;4970478;28;20097;-87
2022/01/07 05:04:20;;;;;;;2.20;0.80;;;;;;;;;;4972067;28;20041;-89
2022/01/07 05:06:47;;;;;;;0.82;0.82;;;;;;;;;;4973391;28;20057;-86
2022/01/07 05:09:16;;;;;;;0.30;0.30;;;;;;;;;;4971556;28;20034;-87
2022/01/07 05:11:42;;;;;;;0.20;0.20;;;;;;;;;;4973456;28;20509;-86
2022/01/07 05:14:08;;;;;;;0.50;0.50;;;;;;;;;;4973186;28;20041;-86
2022/01/07 05:16:34;;;;;;;0.67;0.67;;;;;;;;;;4971884;28;20039;-86
2022/01/07 05:19:00;;;;;;;0.10;0.10;;;;;;;;;;4974754;28;20089;-86
2022/01/07 05:21:26;;;;;;;3.97;2.10;;;;;;;;;;4993721;28;20515;-85
2022/01/07 05:23:52;;;;;;;0.87;0.87;;;;;;;;;;4974463;28;20038;-86
2022/01/07 05:26:19;;;;;;;6.10;2.63;;;;;;;;;;4974948;28;20121;-86
2022/01/07 05:28:45;;;;;;;0.27;0.27;;;;;;;;;;4972510;28;20639;-87
2022/01/07 05:31:11;;;;;;;0.10;0.10;;;;;;;;;;4974686;28;20050;-87
2022/01/07 05:33:37;;;;;;;2.28;0.88;;;;;;;;;;4970324;28;20571;-88
2022/01/07 05:36:03;;;;;;;0.10;0.10;;;;;;;;;;4975807;28;20107;-87
2022/01/07 05:38:29;;;;;;;0.20;0.20;;;;;;;;;;4973824;28;20034;-87
2022/01/07 05:40:55;;;;;;;0.20;0.20;;;;;;;;;;4996740;28;20092;-86
2022/01/07 05:43:21;;;;;;;0.20;0.20;;;;;;;;;;4972408;28;20511;-86
2022/01/07 05:45:47;;;;;;;0.63;0.55;;;;;;;;;;4974997;28;20101;-85
2022/01/07 05:48:13;;;;;;;0.30;0.30;;;;;;;;;;4978471;28;20173;-85
2022/01/07 05:50:39;;;;;;;1.17;1.17;;;;;;;;;;4975668;28;20277;-84
2022/01/07 05:53:05;;;;;;;0.52;0.52;;;;;;;;;;4971005;28;20026;-86
2022/01/07 05:55:31;;;;;;;0.10;0.10;;;;;;;;;;4980488;28;20077;-84
2022/01/07 05:57:58;;;;;;;0.10;0.10;;;;;;;;;;4980898;28;20245;-84
2022/01/07 06:00:24;;;;;;;12.63;0.87;;;;;;;;;;4979537;28;20415;-84
2022/01/07 06:02:50;;;;;;;0.10;0.10;;;;;;;;;;4982800;28;20726;-85
2022/01/07 06:05:16;;;;;;;0.30;0.30;;;;;;;;;;4974116;28;20061;-84
2022/01/07 06:07:42;;;;;;;1.00;0.95;;;;;;;;;;4981480;28;20035;-84
2022/01/07 06:10:08;;;;;;;0.30;0.30;;;;;;;;;;4976543;28;20031;-83
2022/01/07 06:12:34;;;;;;;0.32;0.32;;;;;;;;;;4974004;28;20022;-83
2022/01/07 06:15:00;;;;;;;0.30;0.30;;;;;;;;;;4980583;28;20419;-83
2022/01/07 06:17:26;;;;;;;0.98;0.98;;;;;;;;;;4980538;28;20114;-83
2022/01/07 06:19:53;;;;;;;0.20;0.20;;;;;;;;;;4975892;28;20189;-84
2022/01/07 06:22:19;;;;;;;0.40;0.40;;;;;;;;;;4977181;28;20165;-85
2022/01/07 06:24:45;;;;;;;0.07;0.07;;;;;;;;;;4968926;28;21047;-85
2022/01/07 06:27:11;;;;;;;0.10;0.10;;;;;;;;;;4975539;28;20321;-84
2022/01/07 06:29:40;;;;;;;5.13;1.90;;;;;;;;;;4974689;28;20110;-85
2022/01/07 06:32:06;;;;;;;0.43;0.43;;;;;;;;;;4968951;28;20034;-85
2022/01/07 06:34:32;;;;;;;1.33;1.13;;;;;;;;;;4970066;28;20034;-85
2022/01/07 06:36:59;;;;;;;0.10;0.10;;;;;;;;;;4993437;28;20094;-82
2022/01/07 06:39:28;;;;;;;0.10;0.10;;;;;;;;;;4976423;28;20667;-86
2022/01/07 06:41:54;;;;;;;1.17;1.08;;;;;;;;;;4979602;28;20133;-85
2022/01/07 06:44:21;;;;;;;0.63;0.63;;;;;;;;;;4982317;28;20046;-83
2022/01/07 06:46:47;;;;;;;0.20;0.20;;;;;;;;;;4983636;28;20774;-84
2022/01/07 06:49:13;;;;;;;0.28;0.28;;;;;;;;;;4979147;28;20265;-82
2022/01/07 06:51:40;;;;;;;0.57;0.57;;;;;;;;;;4981521;28;20065;-82
2022/01/07 06:54:07;;;;;;;0.35;0.30;;;;;;;;;;4980587;28;20030;-83
2022/01/07 06:56:34;;;;;;;0.38;0.38;;;;;;;;;;4980870;28;20022;-82
2022/01/07 06:59:00;;;;;;;0.20;0.20;;;;;;;;;;4981281;28;20041;-82
2022/01/07 07:01:27;;;;;;;0.87;0.87;;;;;;;;;;4984315;28;20034;-83
2022/01/07 07:03:53;;;;;;;0.13;0.13;;;;;;;;;;4982209;28;20034;-83
2022/01/07 07:06:19;;;;;;;0.60;0.60;;;;;;;;;;4981017;28;20065;-82
2022/01/07 07:08:46;;;;;;;0.20;0.20;;;;;;;;;;4982774;28;20018;-83
2022/01/07 07:11:12;;;;;;;0.25;0.25;;;;;;;;;;4980811;28;20035;-83
2022/01/07 07:13:38;;;;;;;0.13;0.13;;;;;;;;;;4984216;28;20074;-81
2022/01/07 07:16:04;;;;;;;0.77;0.63;;;;;;;;;;4998778;28;20074;-81
2022/01/07 07:18:30;;;;;;;0.40;0.40;;;;;;;;;;4982140;28;20034;-84
2022/01/07 07:20:56;;;;;;;0.63;0.60;;;;;;;;;;4980906;28;20034;-83
2022/01/07 07:23:22;;;;;;;0.10;0.10;;;;;;;;;;4981487;28;20074;-83
2022/01/07 07:25:48;;;;;;;0.10;0.10;;;;;;;;;;4982245;28;20038;-83
2022/01/07 07:28:14;;;;;;;0.00;0.00;;;;;;;;;;4981910;28;20030;-83
2022/01/07 07:30:42;;;;;;;1.02;1.02;;;;;;;;;;4982665;28;20023;-84
2022/01/07 07:38:41;;;;;;;0.20;0.20;;;;;;;;;;4978951;28;20132;-85
2022/01/07 07:41:08;;;;;;;0.75;0.38;;;;;;;;;;4980722;28;20038;-84
2022/01/07 07:43:34;;;;;;;0.60;0.60;;;;;;;;;;4978484;28;20051;-83
2022/01/07 07:46:00;;;;;;;0.45;0.35;;;;;;;;;;4981288;28;20045;-85
2022/01/07 07:48:27;;;;;;;0.70;0.55;;;;;;;;;;4978565;28;20069;-84
2022/01/07 07:50:53;;;;;;;0.32;0.32;;;;;;;;;;4978275;28;20038;-83
2022/01/07 07:53:19;;;;;;;0.40;0.40;;;;;;;;;;4980502;28;20782;-83
2022/01/07 07:55:51;;;;;;;0.40;0.40;;;;;;;;;;4982677;28;20030;-83
2022/01/07 07:58:17;;;;;;;0.50;0.50;;;;;;;;;;4982108;28;20030;-83
2022/01/07 08:00:43;;;;;;;0.30;0.30;;;;;;;;;;4980189;28;20105;-83
2022/01/07 08:03:09;;;;;;;0.30;0.30;;;;;;;;;;4981862;28;20563;-83
2022/01/07 08:05:35;;;;;;;0.68;0.68;;;;;;;;;;4982063;28;20287;-83
2022/01/07 08:08:02;;;;;;;0.10;0.10;;;;;;;;;;4968639;28;20030;-84
2022/01/07 08:10:29;;;;;;;0.10;0.10;;;;;;;;;;4983197;28;20034;-84
2022/01/07 08:18:20;;;;;;;0.13;0.13;;;;;;;;;;4984161;28;20056;-84
2022/01/07 08:20:46;;;;;;;0.20;0.20;;;;;;;;;;4983712;28;20485;-83
2022/01/07 08:23:13;;;;;;;0.75;0.75;;;;;;;;;;4983539;28;20556;-83
2022/01/07 08:25:39;;;;;;;0.17;0.17;;;;;;;;;;4986263;28;20158;-83
2022/01/07 08:28:06;;;;;;;0.10;0.10;;;;;;;;;;4986196;28;20514;-83
2022/01/07 08:30:38;;;;;;;0.20;0.20;;;;;;;;;;4983757;28;20061;-83
2022/01/07 08:35:49;;;;;;;0.10;0.10;;;;;;;;;;4974377;28;20111;-83
2022/01/07 08:38:15;;;;;;;1.40;0.47;;;;;;;;;;4983242;28;20023;-84
2022/01/07 08:40:41;;;;;;;0.38;0.38;;;;;;;;;;4985829;28;20040;-84
2022/01/07 08:43:08;;;;;;;0.10;0.10;;;;;;;;;;4984549;28;20050;-84
2022/01/07 08:45:34;;;;;;;0.10;0.10;;;;;;;;;;4983917;28;20643;-84
2022/01/07 08:48:00;;;;;;;0.83;0.77;;;;;;;;;;4983567;28;20046;-85
2022/01/07 08:50:26;;;;;;;0.57;0.57;;;;;;;;;;4983706;28;20438;-84
2022/01/07 08:52:55;;;;;;;1.20;1.10;;;;;;;;;;4985086;28;20320;-84
2022/01/07 08:55:21;;;;;;;0.17;0.17;;;;;;;;;;4985859;28;20044;-84
2022/01/07 08:57:47;;;;;;;0.57;0.50;;;;;;;;;;4985031;28;20072;-85
2022/01/07 09:00:13;;;;;;;0.40;0.40;;;;;;;;;;4983454;28;20030;-84
2022/01/07 09:02:39;;;;;;;0.60;0.60;;;;;;;;;;4983224;28;20144;-84
2022/01/07 09:05:06;;;;;;;0.43;0.43;;;;;;;;;;4983775;28;20415;-84
2022/01/07 09:07:33;;;;;;;0.20;0.20;;;;;;;;;;4986305;28;20030;-85
2022/01/07 09:09:59;;;;;;;0.55;0.55;;;;;;;;;;4984881;28;20678;-85
2022/01/07 09:12:25;;;;;;;4.00;1.15;;;;;;;;;;4983460;28;20509;-84
2022/01/07 09:14:51;;;;;;;0.25;0.25;;;;;;;;;;4983581;28;20019;-84
2022/01/07 09:17:17;;;;;;;3.80;1.42;;;;;;;;;;4983015;28;20055;-85
2022/01/07 09:19:43;;;;;;;0.30;0.30;;;;;;;;;;4985526;28;20029;-85
2022/01/07 09:22:10;;;;;;;0.85;0.70;;;;;;;;;;4983949;28;20073;-85
2022/01/07 09:24:36;;;;;;;0.13;0.13;;;;;;;;;;4984266;28;20130;-85
2022/01/07 09:27:02;;;;;;;0.20;0.20;;;;;;;;;;4984443;28;20038;-85
2022/01/07 09:29:28;;;;;;;0.67;0.67;;;;;;;;;;4980152;28;20031;-85
2022/01/07 09:31:54;;;;;;;0.50;0.50;;;;;;;;;;4983283;28;20101;-85
2022/01/07 09:34:21;;;;;;;0.95;0.73;;;;;;;;;;4971387;28;20522;-84
2022/01/07 09:36:47;;;;;;;0.50;0.50;;;;;;;;;;4981006;28;20034;-85
2022/01/07 09:39:13;;;;;;;4.80;3.45;;;;;;;;;;4982696;28;20880;-85
2022/01/07 09:41:39;;;;;;;0.77;0.67;;;;;;;;;;4982325;28;20037;-85
2022/01/07 09:44:12;;;;;;;1.65;1.02;;;;;;;;;;4982184;28;20297;-85
2022/01/07 09:46:39;;;;;;;9.13;0.68;;;;;;;;;;4985210;28;20054;-85
2022/01/07 09:49:05;;;;;;;0.25;0.25;;;;;;;;;;4998716;28;20422;-85
2022/01/07 09:51:31;;;;;;;0.30;0.30;;;;;;;;;;4983337;28;20030;-85
2022/01/07 09:54:00;;;;;;;0.37;0.37;;;;;;;;;;4981944;28;20376;-85
2022/01/07 09:56:26;;;;;;;0.80;0.80;;;;;;;;;;4981905;28;20023;-85
2022/01/07 09:58:52;;;;;;;0.93;0.93;;;;;;;;;;4983956;28;20081;-85
2022/01/07 10:01:20;;;;;;;0.17;0.17;;;;;;;;;;4983887;28;20541;-86
2022/01/07 10:03:46;;;;;;;0.35;0.35;;;;;;;;;;4981521;28;20120;-86
2022/01/07 10:06:23;;;;;;;0.10;0.10;;;;;;;;;;4982282;28;20026;-86
2022/01/07 10:08:59;;;;;;;0.20;0.20;;;;;;;;;;4983354;28;20034;-86
2022/01/07 10:11:25;;;;;;;0.10;0.10;;;;;;;;;;4982403;28;20050;-85
2022/01/07 10:14:11;;;;;;;0.10;0.10;;;;;;;;;;4983781;28;20738;-86
2022/01/07 10:16:47;;;;;;;0.43;0.40;;;;;;;;;;4996424;28;20080;-86
2022/01/07 10:19:28;;;;;;;0.68;0.68;;;;;;;;;;4984751;28;20379;-85
2022/01/07 10:22:01;;;;;;;0.10;0.10;;;;;;;;;;4981799;28;20074;-86
2022/01/07 10:24:28;;;;;;;0.65;0.65;;;;;;;;;;4981834;28;20057;-85
2022/01/07 10:27:14;;;;;;;0.38;0.38;;;;;;;;;;4981692;28;20090;-86
2022/01/07 10:29:42;;;;;;;2.10;0.90;;;;;;;;;;4981464;28;20034;-85
2022/01/07 10:32:21;;;;;;;0.10;0.10;;;;;;;;;;4981477;28;20478;-86
2022/01/07 10:35:06;;;;;;;0.85;0.73;;;;;;;;;;4968123;28;20454;-86
2022/01/07 10:37:33;;;;;;;0.10;0.10;;;;;;;;;;4985030;28;20069;-85
2022/01/07 10:39:59;;;;;;;4.18;1.17;;;;;;;;;;4981450;28;20129;-86
2022/01/07 10:42:27;;;;;;;0.47;0.47;;;;;;;;;;4981384;28;20038;-85
2022/01/07 10:45:01;;;;;;;0.47;0.43;;;;;;;;;;4981916;28;20046;-86
2022/01/07 10:47:28;;;;;;;0.50;0.50;;;;;;;;;;4981318;28;20034;-86
2022/01/07 10:50:14;;;;;;;1.90;1.33;;;;;;;;;;4982883;28;20026;-86
2022/01/07 10:52:40;;;;;;;0.20;0.20;;;;;;;;;;4981016;28;20089;-85
2022/01/07 10:55:14;;;;;;;0.77;0.63;;;;;;;;;;4983587;28;20040;-86
2022/01/07 10:57:44;;;;;;;0.98;0.95;;;;;;;;;;4980966;28;20156;-85
2022/01/07 11:00:12;;;;;;;0.10;0.10;;;;;;;;;;4981166;28;20443;-86
2022/01/07 11:02:39;;;;;;;0.50;0.50;;;;;;;;;;4980761;28;20642;-86
2022/01/07 11:05:07;;;;;;;0.28;0.28;;;;;;;;;;4981123;28;20038;-85
2022/01/07 11:07:32;;;;;;;;;;;;;;;;;;4985114;28;20045;-86
2022/01/07 11:09:58;;;;;;;0.10;0.10;;;;;;;;;;4981130;28;20389;-86
2022/01/07 11:12:26;;;;;;;4.03;1.13;;;;;;;;;;4981461;28;20108;-86
2022/01/07 11:14:51;;;;;;;;;;;;;;;;;;4982752;28;20030;-87
2022/01/07 11:17:21;;;;;;;0.20;0.20;;;;;;;;;;4980680;28;19914;-85
2022/01/07 11:19:52;;;;;;;0.65;0.65;;;;;;;;;;4983206;28;20550;-86
2022/01/07 11:22:19;;;;;;;0.32;0.32;;;;;;;;;;4982662;28;20046;-85
2022/01/07 11:24:50;;;;;;;0.28;0.28;;;;;;;;;;4980759;28;20038;-86
2022/01/07 11:27:21;;;;;;;0.35;0.35;;;;;;;;;;4980710;28;20026;-86
2022/01/07 11:29:54;;;;;;;0.35;0.35;;;;;;;;;;4982458;28;20030;-86
2022/01/07 11:32:25;;;;;;;1.35;0.50;;;;;;;;;;4980112;28;20037;-86
2022/01/07 11:34:55;;;;;;;0.20;0.20;;;;;;;;;;4966958;28;20777;-86
2022/01/07 11:37:37;;;;;;;0.45;0.25;;;;;;;;;;4983550;28;20403;-86
2022/01/07 11:40:04;;;;;;;1.05;1.05;;;;;;;;;;4984366;28;20038;-87
2022/01/07 11:42:47;;;;;;;0.43;0.43;;;;;;;;;;4984586;28;20433;-86
2022/01/07 11:45:29;;;;;;;0.45;0.45;;;;;;;;;;4984353;28;20052;-87
2022/01/07 11:47:59;;;;;;;0.20;0.20;;;;;;;;;;4984599;28;20034;-86
2022/01/07 11:50:25;;;;;;;0.63;0.63;;;;;;;;;;4984789;28;20045;-87
2022/01/07 11:52:57;;;;;;;0.63;0.63;;;;;;;;;;4986713;28;20065;-86
2022/01/07 11:55:31;;;;;;;0.45;0.45;;;;;;;;;;4987090;28;20039;-86
2022/01/07 11:58:01;;;;;;;1.30;1.23;;;;;;;;;;4984673;28;20049;-86
2022/01/07 12:00:46;;;;;;;0.32;0.32;;;;;;;;;;4984270;28;20517;-86
2022/01/07 12:03:12;;;;;;;0.77;0.77;;;;;;;;;;4984406;28;20038;-85
2022/01/07 12:05:38;;;;;;;0.32;0.32;;;;;;;;;;4984527;28;20031;-86
2022/01/07 12:08:04;;;;;;;0.25;0.25;;;;;;;;;;4984432;28;20035;-86
2022/01/07 12:10:30;;;;;;;0.20;0.20;;;;;;;;;;4987590;28;20030;-86
2022/01/07 12:13:02;;;;;;;0.90;0.50;;;;;;;;;;4985883;28;20077;-86
2022/01/07 12:15:28;;;;;;;0.20;0.20;;;;;;;;;;4985353;28;20026;-85
2022/01/07 12:17:55;;;;;;;0.60;0.60;;;;;;;;;;4986184;28;20406;-85
2022/01/07 12:20:36;;;;;;;0.40;0.40;;;;;;;;;;4984119;28;20117;-86
2022/01/07 12:23:02;;;;;;;0.43;0.43;;;;;;;;;;4984753;28;20076;-87
2022/01/07 12:25:28;;;;;;;0.25;0.25;;;;;;;;;;4987473;28;20027;-86
2022/01/07 12:28:01;;;;;;;1.43;1.33;;;;;;;;;;4984685;28;20066;-86
2022/01/07 12:30:28;;;;;;;1.00;0.73;;;;;;;;;;4984503;28;20022;-87
2022/01/07 12:32:58;;;;;;;10.38;1.50;;;;;;;;;;4982448;28;20435;-86
2022/01/07 12:35:29;;;;;;;0.10;0.10;;;;;;;;;;4971833;28;20503;-86
2022/01/07 12:37:55;;;;;;;0.65;0.65;;;;;;;;;;4984309;28;20080;-86
2022/01/07 12:40:21;;;;;;;1.50;0.40;;;;;;;;;;4986589;28;20022;-87
2022/01/07 12:42:47;;;;;;;0.55;0.55;;;;;;;;;;4984140;28;20570;-87
2022/01/07 12:45:17;;;;;;;0.40;0.40;;;;;;;;;;4984042;28;20791;-87
2022/01/07 12:47:43;;;;;;;1.60;1.00;;;;;;;;;;4983855;28;20026;-86
2022/01/07 12:50:10;;;;;;;0.20;0.20;;;;;;;;;;4984987;28;20035;-86
2022/01/07 12:52:37;;;;;;;1.17;1.02;;;;;;;;;;4986786;28;20071;-86
2022/01/07 12:55:20;;;;;;;0.10;0.10;;;;;;;;;;4984737;28;20122;-86
2022/01/07 12:57:47;;;;;;;0.60;0.60;;;;;;;;;;4985180;28;20121;-86
2022/01/07 13:00:16;;;;;;;1.33;1.23;;;;;;;;;;4983730;28;20111;-86
2022/01/07 13:02:43;;;;;;;0.15;0.15;;;;;;;;;;4983072;28;20132;-86
2022/01/07 13:05:30;;;;;;;0.20;0.20;;;;;;;;;;4984257;28;20029;-86
2022/01/07 13:08:00;;;;;;;0.22;0.22;;;;;;;;;;4984496;28;20087;-86
2022/01/07 13:10:30;;;;;;;0.25;0.25;;;;;;;;;;4985936;28;20045;-86
2022/01/07 13:12:58;;;;;;;0.30;0.30;;;;;;;;;;4982889;28;21362;-87
2022/01/07 13:15:34;;;;;;;0.20;0.20;;;;;;;;;;4984081;28;20038;-86
2022/01/07 13:18:16;;;;;;;0.20;0.20;;;;;;;;;;4982914;28;20057;-86
2022/01/07 13:20:42;;;;;;;0.00;0.00;;;;;;;;;;4983130;28;20072;-86
2022/01/07 13:23:08;;;;;;;11.13;1.02;;;;;;;;;;4983042;28;20582;-86
2022/01/07 13:25:35;;;;;;;0.30;0.30;;;;;;;;;;4986512;28;20026;-86
2022/01/07 13:28:01;;;;;;;1.73;0.73;;;;;;;;;;4984257;28;20113;-88
2022/01/07 13:30:53;;;;;;;0.10;0.10;;;;;;;;;;4982942;28;20096;-87
2022/01/07 13:33:25;;;;;;;0.00;0.00;;;;;;;;;;4974638;28;20050;-86
2022/01/07 13:35:55;;;;;;;0.35;0.32;;;;;;;;;;4973795;28;20026;-87
2022/01/07 13:38:22;;;;;;;1.20;1.00;;;;;;;;;;4983074;28;20027;-87
2022/01/07 13:40:49;;;;;;;1.02;0.90;;;;;;;;;;4984516;28;20031;-86
2022/01/07 13:43:16;;;;;;;0.35;0.35;;;;;;;;;;4983575;28;20522;-87
2022/01/07 13:45:42;;;;;;;0.30;0.30;;;;;;;;;;4983834;28;20029;-86
2022/01/07 13:48:10;;;;;;;0.17;0.17;;;;;;;;;;4984400;28;20121;-86
2022/01/07 13:50:38;;;;;;;;;;;;;;;;;;4979284;28;20022;-87
2022/01/07 13:53:11;;;;;;;0.20;0.20;;;;;;;;;;4968246;28;19913;-87
2022/01/07 13:55:39;;;;;;;0.30;0.30;;;;;;;;;;4982507;28;20041;-87
2022/01/07 13:58:08;;;;;;;0.28;0.28;;;;;;;;;;4983672;28;20568;-88
2022/01/07 14:00:35;;;;;;;1.77;0.85;;;;;;;;;;4982750;28;20026;-86
2022/01/07 14:03:02;;;;;;;0.10;0.10;;;;;;;;;;4982694;28;20042;-88
2022/01/07 14:05:28;;;;;;;0.40;0.40;;;;;;;;;;4985284;28;20146;-88
2022/01/07 14:07:54;;;;;;;0.20;0.20;;;;;;;;;;4984185;28;20026;-87
2022/01/07 14:10:39;;;;;;;1.45;0.80;;;;;;;;;;4985549;28;20408;-87
2022/01/07 14:13:16;;;;;;;0.75;0.38;;;;;;;;;;4983212;28;20525;-88
2022/01/07 14:15:42;;;;;;;0.45;0.45;;;;;;;;;;4982390;28;20061;-87
2022/01/07 14:18:15;;;;;;;0.17;0.17;;;;;;;;;;4984473;28;20030;-87
2022/01/07 14:20:44;;;;;;;0.10;0.10;;;;;;;;;;4982490;28;20043;-88
2022/01/07 14:23:11;;;;;;;0.10;0.10;;;;;;;;;;4981815;28;20400;-87
2022/01/07 14:25:37;;;;;;;0.10;0.10;;;;;;;;;;4983581;28;20112;-88
2022/01/07 14:28:04;;;;;;;1.65;0.85;;;;;;;;;;4997135;28;20033;-86
2022/01/07 14:30:30;;;;;;;0.00;0.00;;;;;;;;;;4982078;28;20058;-87
2022/01/07 14:32:56;;;;;;;0.32;0.32;;;;;;;;;;4979739;28;20112;-87
2022/01/07 14:35:22;;;;;;;0.68;0.52;;;;;;;;;;4970408;28;20041;-87
2022/01/07 14:37:48;;;;;;;0.20;0.20;;;;;;;;;;4984312;28;20565;-87
2022/01/07 14:40:14;;;;;;;0.20;0.20;;;;;;;;;;4983035;28;20054;-87
2022/01/07 14:42:40;;;;;;;0.10;0.10;;;;;;;;;;4981482;28;20064;-86
2022/01/07 14:45:06;;;;;;;0.43;0.43;;;;;;;;;;4981854;28;20165;-87
2022/01/07 14:47:33;;;;;;;0.10;0.10;;;;;;;;;;4981726;28;20046;-87
2022/01/07 14:49:59;;;;;;;0.10;0.10;;;;;;;;;;4983113;28;20070;-87
2022/01/07 14:52:25;;;;;;;0.00;0.00;;;;;;;;;;4985080;28;20112;-87
2022/01/07 14:54:51;;;;;;;0.10;0.10;;;;;;;;;;4983830;28;20407;-87
2022/01/07 14:57:17;;;;;;;0.50;0.50;;;;;;;;;;4982451;28;20330;-87
2022/01/07 14:59:44;;;;;;;0.80;0.80;;;;;;;;;;4981677;28;20153;-86